aviador You're here:

KRIW Decoded Metar

RIVERTON in WY, USA
Report Time2017-11-25 04:53:00
UTC Time2017-11-25 05:33:15
Flight Rules vfr VFR
Wind250° at 09 kt
W.Decomp.*RWY 28: 6.8 kt HW 5.9 kt LCW
RWY 19: 5.9 kt HW 6.8 kt RCW
W.Rank250° ranks 5
Current wind is above 250° avg. (8.6)
Visibility9999 m
Phenomena:N/A
Clouds:N/A
Expected CloudBase > 1,600 ft AGL from Temp-Dew spread
CeilingNone
Temp02°C (ISA -2)
Dew Point-2°C (75% RH)
AAT-3.5°C
QNH1017 hPa
Density Alt5,285 ft
Elevation5,568 ft
Report Wrong Elevation
Raw Report
KRIW 250453Z AUTO 25009KT 10SM CLR 02/M02 A3003 RMK AO2 SLP162
T00221022=

Extra information for KRIW:More info

Metar Taf Metar & Taf Last 4 Metars F.Rules Stats Wind Profile Meteogram Temp Stats Airport Information Weather charts Add Link Nearby VenuesMetar ALERT Operation Metar Decoded Social comments

AIRNAV info for KRIW